createdAt,value
2023-03-23T15:58:51.000Z,100094.00
2023-03-23T16:01:23.910Z,100096.00
2023-03-23T16:03:57.363Z,100102.00
2023-03-23T16:06:26.382Z,100106.00
2023-03-23T16:08:56.616Z,100118.00
2023-03-23T16:11:26.963Z,100146.00
2023-03-23T16:13:53.542Z,100147.00
2023-03-23T16:16:31.220Z,100148.00
2023-03-23T16:18:57.817Z,100182.00
2023-03-23T16:21:24.482Z,100182.00
2023-03-23T16:23:50.947Z,100196.00
2023-03-23T16:26:17.930Z,100180.00
2023-03-23T16:28:44.571Z,100150.00
2023-03-23T16:31:11.748Z,100154.00
2023-03-23T16:33:38.545Z,100131.00
2023-03-23T16:36:05.505Z,100149.00
2023-03-23T16:38:32.028Z,100167.00
2023-03-23T16:40:58.973Z,100173.00
2023-03-23T16:43:26.054Z,100193.00
2023-03-23T16:45:55.958Z,100193.00
2023-03-23T16:48:22.961Z,100201.00
2023-03-23T16:50:51.791Z,100211.00
2023-03-23T16:53:19.127Z,100203.00
2023-03-23T16:55:48.295Z,100208.00
2023-03-23T16:58:17.714Z,100210.00
2023-03-23T17:00:47.790Z,100210.00
2023-03-23T17:03:16.380Z,100215.00
2023-03-23T17:05:43.652Z,100219.00
2023-03-23T17:08:10.656Z,100224.00
2023-03-23T17:10:39.517Z,100231.00
2023-03-23T17:13:06.348Z,100214.00
2023-03-23T17:15:32.911Z,100217.00
2023-03-23T17:17:59.658Z,100216.00
2023-03-23T17:20:26.342Z,100220.00
2023-03-23T17:22:53.132Z,100229.00
2023-03-23T17:25:19.786Z,100227.00
2023-03-23T17:27:46.515Z,100221.00
2023-03-23T17:30:18.655Z,100223.00
2023-03-23T17:32:47.402Z,100246.00
2023-03-23T17:35:13.980Z,100244.00
2023-03-23T17:37:40.783Z,100253.00
2023-03-23T17:40:10.452Z,100246.00
2023-03-23T17:42:37.590Z,100250.00
2023-03-23T17:45:06.705Z,100243.00
2023-03-23T17:47:34.085Z,100251.00
2023-03-23T17:50:00.684Z,100232.00
2023-03-23T17:55:28.261Z,100236.00
2023-03-23T17:57:54.730Z,100230.00
2023-03-23T18:00:24.661Z,100229.00
2023-03-23T18:02:51.547Z,100232.00
2023-03-23T18:05:18.361Z,100226.00
2023-03-23T18:07:44.823Z,100213.00
2023-03-23T18:10:12.988Z,100226.00
2023-03-23T18:12:41.562Z,100234.00
2023-03-23T18:15:09.257Z,100235.00
2023-03-23T18:17:36.357Z,100240.00
2023-03-23T18:20:04.886Z,100230.00
2023-03-23T18:22:31.406Z,100234.00
2023-03-23T18:24:58.743Z,100253.00
2023-03-23T18:27:26.346Z,100260.00
2023-03-23T18:29:53.519Z,100252.00
2023-03-23T18:32:20.853Z,100257.00
2023-03-23T18:34:48.795Z,100266.00
2023-03-23T18:37:15.473Z,100287.00
2023-03-23T18:39:41.989Z,100281.00
2023-03-23T18:42:09.211Z,100280.00
2023-03-23T18:44:35.862Z,100288.00
2023-03-23T18:47:02.451Z,100281.00
2023-03-23T18:49:30.106Z,100280.00
2023-03-23T18:51:56.633Z,100264.00
2023-03-23T18:54:23.081Z,100261.00
2023-03-23T18:56:49.591Z,100262.00
2023-03-23T18:59:16.238Z,100264.00
2023-03-23T19:01:42.893Z,100257.00
2023-03-23T19:04:13.631Z,100264.00
2023-03-23T19:06:40.567Z,100274.00
2023-03-23T19:09:07.584Z,100275.00
2023-03-23T19:11:34.652Z,100274.00
2023-03-23T19:14:03.315Z,100270.00
2023-03-23T19:16:32.540Z,100264.00
2023-03-23T19:19:04.105Z,100261.00
2023-03-23T19:21:32.166Z,100263.00
2023-03-23T19:23:59.750Z,100261.00
2023-03-23T19:26:34.763Z,100276.00
2023-03-23T19:29:25.354Z,100282.00
2023-03-23T19:31:51.620Z,100277.00
2023-03-23T19:34:18.872Z,100282.00
2023-03-23T19:36:54.378Z,100276.00
2023-03-23T19:39:26.172Z,100278.00
2023-03-23T19:41:52.889Z,100271.00
2023-03-23T19:44:23.406Z,100273.00
2023-03-23T19:46:50.206Z,100274.00
2023-03-23T19:49:16.956Z,100271.00
2023-03-23T19:51:43.552Z,100272.00
2023-03-23T19:54:13.145Z,100274.00
2023-03-23T19:56:43.419Z,100277.00
2023-03-23T19:59:15.024Z,100274.00
2023-03-23T20:01:55.887Z,100279.00
2023-03-23T20:04:23.989Z,100276.00
2023-03-23T20:06:52.868Z,100276.00
2023-03-23T20:09:19.824Z,100287.00
2023-03-23T20:11:46.964Z,100284.00
2023-03-23T20:14:17.768Z,100283.00
2023-03-23T20:16:47.426Z,100274.00
2023-03-23T20:19:14.001Z,100265.00
2023-03-23T20:21:43.310Z,100272.00
2023-03-23T20:24:12.641Z,100279.00
2023-03-23T20:26:41.781Z,100274.00
2023-03-23T20:29:11.636Z,100280.00
2023-03-23T20:32:07.546Z,100279.00
2023-03-23T20:34:36.212Z,100268.00
2023-03-23T20:37:03.708Z,100281.00
2023-03-23T20:39:32.038Z,100270.00
2023-03-23T20:42:05.991Z,100265.00
2023-03-23T20:44:35.088Z,100280.00
2023-03-23T20:47:05.970Z,100269.00
2023-03-23T20:49:35.532Z,100263.00
2023-03-23T20:52:02.514Z,100278.00
2023-03-23T20:54:30.656Z,100268.00
2023-03-23T20:56:58.651Z,100275.00
2023-03-23T20:59:26.195Z,100287.00
2023-03-23T21:01:52.794Z,100269.00
2023-03-23T21:04:23.073Z,100265.00
2023-03-23T21:06:49.846Z,100268.00
2023-03-23T21:09:18.237Z,100266.00
2023-03-23T21:11:45.930Z,100265.00
2023-03-23T21:14:18.838Z,100263.00
2023-03-23T21:16:45.540Z,100265.00
2023-03-23T21:19:12.519Z,100256.00
2023-03-23T21:21:55.234Z,100255.00
2023-03-23T21:24:26.729Z,100249.00
2023-03-23T21:26:54.380Z,100249.00
2023-03-23T21:29:24.686Z,100236.00
2023-03-23T21:32:01.086Z,100226.00
2023-03-23T21:34:34.826Z,100226.00
2023-03-23T21:37:06.137Z,100225.00
2023-03-23T21:39:33.637Z,100225.00
2023-03-23T21:42:01.777Z,100229.00
2023-03-23T21:44:36.847Z,100219.00
2023-03-23T21:50:10.633Z,100225.00
2023-03-23T21:52:50.833Z,100227.00
2023-03-23T21:56:07.241Z,100215.00
2023-03-23T21:59:20.035Z,100208.00
2023-03-23T22:02:27.584Z,100203.00
2023-03-23T22:05:55.170Z,100206.00
2023-03-23T22:15:52.354Z,100205.00
2023-03-23T22:21:14.172Z,100202.00
2023-03-23T22:23:44.569Z,100208.00
2023-03-23T22:27:31.224Z,100208.00
2023-03-23T22:29:57.835Z,100209.00
2023-03-23T22:32:24.386Z,100208.00
2023-03-23T22:35:02.255Z,100203.00
2023-03-23T22:37:31.319Z,100202.00
2023-03-23T22:39:57.889Z,100203.00
2023-03-23T22:42:32.748Z,100197.00
2023-03-23T22:44:59.473Z,100193.00
2023-03-23T22:47:29.126Z,100182.00
2023-03-23T22:49:55.677Z,100171.00
2023-03-23T22:52:22.232Z,100176.00
2023-03-23T22:54:49.120Z,100176.00
2023-03-23T22:57:16.058Z,100186.00
2023-03-23T22:59:45.324Z,100173.00
2023-03-23T23:02:12.110Z,100171.00
2023-03-23T23:04:38.842Z,100159.00
2023-03-23T23:07:12.967Z,100163.00
2023-03-23T23:09:44.983Z,100160.00
2023-03-23T23:12:14.192Z,100155.00
2023-03-23T23:14:46.663Z,100154.00
2023-03-23T23:17:13.400Z,100145.00
2023-03-23T23:19:40.584Z,100148.00
2023-03-23T23:22:18.462Z,100148.00
2023-03-23T23:24:48.750Z,100137.00
2023-03-23T23:27:16.400Z,100134.00
2023-03-23T23:29:50.655Z,100129.00
2023-03-23T23:32:20.017Z,100131.00
2023-03-23T23:34:47.008Z,100128.00
2023-03-23T23:37:13.847Z,100122.00
2023-03-23T23:39:44.242Z,100117.00
2023-03-23T23:42:13.575Z,100120.00
2023-03-23T23:44:47.801Z,100117.00
2023-03-23T23:47:14.714Z,100119.00
2023-03-23T23:49:41.414Z,100112.00
2023-03-23T23:52:08.718Z,100115.00
2023-03-23T23:54:49.802Z,100117.00
2023-03-23T23:57:16.749Z,100110.00
2023-03-23T23:59:46.391Z,100112.00
